Time;durP1;ratioP1;P1;durP2;ratioP2;P2;SDS_P1;SDS_P2;PMS_P1;PMS_P2;Temp;Humidity;BMP_temperature;BMP_pressure;BME280_temperature;BME280_humidity;BME280_pressure;Samples;Min_cycle;Max_cycle;Signal;HPM_P1;HPM_P2
2021/01/09 00:02:19;;;;;;;;;12.00;10.00;;;;;;;;5049467;28;8952;-74
2021/01/09 00:04:45;;;;;;;;;11.33;10.00;;;;;;;;5049226;28;8857;-75
2021/01/09 00:07:11;;;;;;;;;14.67;13.67;;;;;;;;5049962;28;8872;-74
2021/01/09 00:09:37;;;;;;;;;9.00;9.00;;;;;;;;5049546;28;8994;-75
2021/01/09 00:12:03;;;;;;;;;12.33;9.00;;;;;;;;5049599;28;8950;-76
2021/01/09 00:14:29;;;;;;;;;13.00;11.33;;;;;;;;5049488;28;8958;-76
2021/01/09 00:16:56;;;;;;;;;12.00;12.00;;;;;;;;5049262;28;8941;-75
2021/01/09 00:19:22;;;;;;;;;10.67;10.00;;;;;;;;5049339;28;8857;-75
2021/01/09 00:21:48;;;;;;;;;9.67;8.33;;;;;;;;5049441;28;8838;-75
2021/01/09 00:24:14;;;;;;;;;12.00;8.00;;;;;;;;5049432;28;8865;-74
2021/01/09 00:26:40;;;;;;;;;8.67;8.67;;;;;;;;5049345;28;8972;-75
2021/01/09 00:29:06;;;;;;;;;10.67;9.00;;;;;;;;5049448;28;8910;-74
2021/01/09 00:31:32;;;;;;;;;10.67;8.33;;;;;;;;5049317;28;8980;-74
2021/01/09 00:33:59;;;;;;;;;9.00;8.00;;;;;;;;5049674;28;8830;-74
2021/01/09 00:36:25;;;;;;;;;8.67;8.67;;;;;;;;5049387;28;8957;-74
2021/01/09 00:38:51;;;;;;;;;8.33;8.00;;;;;;;;5049266;28;8825;-75
2021/01/09 00:41:25;;;;;;;;;10.00;9.00;;;;;;;;5049335;28;9002;-77
2021/01/09 00:43:51;;;;;;;;;10.00;9.00;;;;;;;;5049180;28;8879;-76
2021/01/09 00:46:17;;;;;;;;;7.33;7.33;;;;;;;;5049265;28;8853;-75
2021/01/09 00:48:43;;;;;;;;;8.33;8.00;;;;;;;;5049156;28;8934;-76
2021/01/09 00:51:12;;;;;;;;;11.33;9.67;;;;;;;;5049398;28;8853;-76
2021/01/09 00:53:38;;;;;;;;;12.00;8.00;;;;;;;;5049002;28;8960;-76
2021/01/09 00:56:05;;;;;;;;;10.00;9.00;;;;;;;;5049641;28;8976;-76
2021/01/09 00:58:31;;;;;;;;;10.00;9.00;;;;;;;;5048906;28;8944;-76
2021/01/09 01:00:56;;;;;;;;;10.67;8.67;;;;;;;;5049486;28;8860;-76
2021/01/09 01:03:22;;;;;;;;;9.33;9.33;;;;;;;;5049238;28;8837;-76
2021/01/09 01:05:48;;;;;;;;;13.67;10.00;;;;;;;;5048780;28;8884;-76
2021/01/09 01:08:15;;;;;;;;;12.67;9.33;;;;;;;;5049215;28;8848;-76
2021/01/09 01:10:41;;;;;;;;;12.00;9.67;;;;;;;;5049184;28;8852;-76
2021/01/09 01:13:07;;;;;;;;;6.67;5.33;;;;;;;;5049070;28;8853;-76
2021/01/09 01:15:33;;;;;;;;;6.67;6.67;;;;;;;;5048941;28;8861;-73
2021/01/09 01:18:00;;;;;;;;;13.67;12.00;;;;;;;;5049077;28;8842;-74
2021/01/09 01:20:26;;;;;;;;;13.00;9.00;;;;;;;;5045146;28;8922;-73
2021/01/09 01:22:52;;;;;;;;;9.33;9.33;;;;;;;;5048834;28;8849;-73
2021/01/09 01:25:19;;;;;;;;;10.67;10.67;;;;;;;;5049369;28;8863;-74
2021/01/09 01:27:45;;;;;;;;;16.33;14.67;;;;;;;;5052417;28;9700;-74
2021/01/09 01:30:11;;;;;;;;;11.00;9.00;;;;;;;;5052696;28;8841;-73
2021/01/09 01:32:37;;;;;;;;;12.33;12.33;;;;;;;;5052498;28;8983;-74
2021/01/09 01:35:03;;;;;;;;;13.00;10.00;;;;;;;;5052201;28;8952;-73
2021/01/09 01:37:29;;;;;;;;;13.33;12.67;;;;;;;;5052650;28;9588;-74
2021/01/09 01:39:55;;;;;;;;;12.00;11.33;;;;;;;;5052471;28;8952;-75
2021/01/09 01:42:22;;;;;;;;;16.67;13.67;;;;;;;;5052249;28;8961;-76
2021/01/09 01:44:48;;;;;;;;;14.00;10.00;;;;;;;;5052678;28;9087;-76
2021/01/09 01:47:16;;;;;;;;;15.33;13.00;;;;;;;;5056247;28;9597;-77
2021/01/09 01:49:42;;;;;;;;;17.00;14.67;;;;;;;;5055794;28;8984;-75
2021/01/09 01:52:08;;;;;;;;;13.33;12.67;;;;;;;;5055018;28;9011;-76
2021/01/09 01:54:34;;;;;;;;;19.00;12.33;;;;;;;;5052736;28;8995;-75
2021/01/09 01:57:02;;;;;;;;;12.33;12.00;;;;;;;;5052028;28;8829;-75
2021/01/09 01:59:28;;;;;;;;;19.33;13.67;;;;;;;;5052412;28;8846;-76
2021/01/09 02:01:54;;;;;;;;;22.33;13.00;;;;;;;;5044004;28;8952;-75
2021/01/09 02:04:20;;;;;;;;;12.33;10.67;;;;;;;;5051924;28;8864;-75
2021/01/09 02:06:48;;;;;;;;;17.00;16.00;;;;;;;;5051320;28;8869;-75
2021/01/09 02:09:17;;;;;;;;;18.33;15.00;;;;;;;;5051685;28;8912;-74
2021/01/09 02:11:46;;;;;;;;;10.33;9.33;;;;;;;;5051101;28;8857;-75
2021/01/09 02:14:14;;;;;;;;;17.33;13.33;;;;;;;;5051813;28;9042;-75
2021/01/09 02:16:42;;;;;;;;;15.00;11.00;;;;;;;;5051263;28;8849;-74
2021/01/09 02:19:08;;;;;;;;;16.00;12.33;;;;;;;;5051470;28;8968;-75
2021/01/09 02:21:37;;;;;;;;;12.67;12.67;;;;;;;;5051321;28;8897;-75
2021/01/09 02:24:10;;;;;;;;;13.33;11.33;;;;;;;;5051231;28;8963;-74
2021/01/09 02:26:36;;;;;;;;;17.67;11.33;;;;;;;;5051326;28;8968;-74
2021/01/09 02:29:02;;;;;;;;;12.00;10.00;;;;;;;;5051113;28;8903;-75
2021/01/09 02:31:28;;;;;;;;;17.67;12.67;;;;;;;;5051099;28;8973;-75
2021/01/09 02:33:55;;;;;;;;;19.67;13.00;;;;;;;;5047267;28;8833;-74
2021/01/09 02:36:21;;;;;;;;;17.00;14.33;;;;;;;;5051292;28;8837;-73
2021/01/09 02:38:47;;;;;;;;;16.67;12.00;;;;;;;;5050924;28;8919;-75
2021/01/09 02:41:14;;;;;;;;;14.33;12.00;;;;;;;;5051068;28;8956;-75
2021/01/09 02:43:40;;;;;;;;;13.00;12.00;;;;;;;;5050918;28;8837;-75
2021/01/09 02:46:06;;;;;;;;;20.00;15.00;;;;;;;;5051160;28;8846;-74
2021/01/09 02:48:32;;;;;;;;;14.33;12.33;;;;;;;;5050471;28;9011;-75
2021/01/09 02:50:58;;;;;;;;;16.33;15.00;;;;;;;;5051157;28;8825;-74
2021/01/09 02:53:24;;;;;;;;;12.67;11.33;;;;;;;;5050724;28;8869;-75
2021/01/09 02:55:50;;;;;;;;;14.33;11.67;;;;;;;;5050889;28;8944;-75
2021/01/09 02:58:17;;;;;;;;;15.33;13.00;;;;;;;;5050806;28;8853;-76
2021/01/09 03:00:43;;;;;;;;;15.67;14.00;;;;;;;;5050652;28;8960;-75
2021/01/09 03:03:09;;;;;;;;;13.00;12.33;;;;;;;;5050976;28;8842;-75
2021/01/09 03:05:34;;;;;;;;;16.67;15.00;;;;;;;;5050357;28;8849;-75
2021/01/09 03:08:00;;;;;;;;;15.00;14.33;;;;;;;;5050820;28;8995;-77
2021/01/09 03:10:26;;;;;;;;;11.00;11.00;;;;;;;;5050394;28;8945;-76
2021/01/09 03:12:52;;;;;;;;;13.00;12.33;;;;;;;;5050361;28;8864;-74
2021/01/09 03:15:19;;;;;;;;;15.67;13.67;;;;;;;;5050286;28;8872;-74
2021/01/09 03:17:45;;;;;;;;;15.67;15.00;;;;;;;;5050034;28;8988;-75
2021/01/09 03:20:11;;;;;;;;;17.67;12.00;;;;;;;;5050607;28;8838;-76
2021/01/09 03:22:37;;;;;;;;;11.00;9.00;;;;;;;;5050245;28;8834;-75
2021/01/09 03:25:04;;;;;;;;;13.00;11.67;;;;;;;;5050341;28;8845;-74
2021/01/09 03:27:29;;;;;;;;;16.33;15.00;;;;;;;;5050346;28;8960;-75
2021/01/09 03:29:55;;;;;;;;;13.00;12.00;;;;;;;;5050103;28;8856;-75
2021/01/09 03:32:22;;;;;;;;;13.67;12.67;;;;;;;;5050084;28;8829;-75
2021/01/09 03:34:48;;;;;;;;;18.00;15.33;;;;;;;;5050013;28;8845;-75
2021/01/09 03:37:15;;;;;;;;;13.00;13.00;;;;;;;;5050127;28;8833;-75
2021/01/09 03:39:41;;;;;;;;;15.33;13.00;;;;;;;;5049839;28;9038;-75
2021/01/09 03:42:07;;;;;;;;;18.00;16.00;;;;;;;;5049626;28;8841;-75
2021/01/09 03:44:33;;;;;;;;;19.33;13.67;;;;;;;;5049501;28;9012;-75
2021/01/09 03:46:58;;;;;;;;;15.67;15.67;;;;;;;;5049719;28;8861;-75
2021/01/09 03:49:25;;;;;;;;;14.33;13.00;;;;;;;;5049406;28;8964;-75
2021/01/09 03:51:51;;;;;;;;;16.00;15.00;;;;;;;;5049813;28;8956;-75
2021/01/09 03:54:17;;;;;;;;;12.67;12.00;;;;;;;;5049932;28;9572;-75
2021/01/09 03:56:43;;;;;;;;;17.33;15.67;;;;;;;;5049385;28;8863;-74
2021/01/09 03:59:09;;;;;;;;;20.67;15.67;;;;;;;;5049831;28;8830;-74
2021/01/09 04:01:35;;;;;;;;;17.33;13.67;;;;;;;;5049760;28;9038;-74
2021/01/09 04:04:01;;;;;;;;;18.67;15.33;;;;;;;;5049578;28;8830;-74
2021/01/09 04:06:28;;;;;;;;;16.00;16.00;;;;;;;;5049455;28;9007;-74
2021/01/09 04:08:54;;;;;;;;;18.00;16.00;;;;;;;;5045965;28;8988;-76
2021/01/09 04:11:20;;;;;;;;;19.67;18.00;;;;;;;;5049654;28;8826;-75
2021/01/09 04:13:46;;;;;;;;;19.00;18.33;;;;;;;;5049387;28;8849;-75
2021/01/09 04:16:12;;;;;;;;;21.67;18.00;;;;;;;;5049556;28;8857;-75
2021/01/09 04:18:38;;;;;;;;;24.33;19.00;;;;;;;;5049194;28;8856;-75
2021/01/09 04:21:04;;;;;;;;;23.67;19.33;;;;;;;;5049100;28;8854;-74
2021/01/09 04:23:30;;;;;;;;;23.00;21.33;;;;;;;;5049299;28;8826;-74
2021/01/09 04:25:56;;;;;;;;;19.67;19.33;;;;;;;;5049611;28;8964;-75
2021/01/09 04:28:22;;;;;;;;;19.67;17.67;;;;;;;;5045360;28;8837;-75
2021/01/09 04:30:48;;;;;;;;;21.33;20.00;;;;;;;;5049404;28;8841;-75
2021/01/09 04:33:14;;;;;;;;;22.33;21.33;;;;;;;;5049343;28;8900;-75
2021/01/09 04:35:40;;;;;;;;;27.00;19.33;;;;;;;;5049292;28;8845;-74
2021/01/09 04:38:06;;;;;;;;;22.33;20.67;;;;;;;;5049226;28;8869;-74
2021/01/09 04:40:35;;;;;;;;;30.00;21.33;;;;;;;;5048844;28;8951;-74
2021/01/09 04:43:01;;;;;;;;;22.00;18.33;;;;;;;;5049522;28;8964;-74
2021/01/09 04:45:27;;;;;;;;;22.67;20.00;;;;;;;;5048872;28;8983;-74
2021/01/09 04:47:53;;;;;;;;;23.67;19.00;;;;;;;;5045028;28;9537;-74
2021/01/09 04:50:20;;;;;;;;;23.00;22.00;;;;;;;;5048770;28;8940;-74
2021/01/09 04:52:46;;;;;;;;;22.00;19.00;;;;;;;;5048861;28;8968;-75
2021/01/09 04:55:12;;;;;;;;;25.67;22.33;;;;;;;;5049022;28;8960;-74
2021/01/09 04:57:39;;;;;;;;;23.00;21.33;;;;;;;;5049007;28;8956;-74
2021/01/09 05:00:06;;;;;;;;;25.00;23.00;;;;;;;;5048985;28;8944;-74
2021/01/09 05:02:33;;;;;;;;;24.67;22.00;;;;;;;;5052595;28;8962;-74
2021/01/09 05:04:59;;;;;;;;;29.67;27.00;;;;;;;;5053181;28;9003;-73
2021/01/09 05:07:25;;;;;;;;;26.00;23.67;;;;;;;;5052834;28;8932;-73
2021/01/09 05:09:58;;;;;;;;;23.00;22.00;;;;;;;;5052766;28;8825;-73
2021/01/09 05:12:24;;;;;;;;;29.33;25.00;;;;;;;;5049236;28;8956;-75
2021/01/09 05:14:51;;;;;;;;;31.67;25.67;;;;;;;;5052578;28;8864;-74
2021/01/09 05:17:16;;;;;;;;;31.67;25.33;;;;;;;;5052153;28;8966;-75
2021/01/09 05:19:42;;;;;;;;;23.00;23.00;;;;;;;;5052321;28;8845;-76
2021/01/09 05:22:09;;;;;;;;;26.33;22.67;;;;;;;;5052533;28;8868;-73
2021/01/09 05:24:36;;;;;;;;;31.33;30.67;;;;;;;;5052186;28;8958;-74
2021/01/09 05:27:03;;;;;;;;;29.33;28.67;;;;;;;;5052327;28;8841;-75
2021/01/09 05:29:31;;;;;;;;;28.33;25.67;;;;;;;;5051888;28;8849;-75
2021/01/09 05:31:58;;;;;;;;;24.00;22.00;;;;;;;;5052220;28;9074;-75
2021/01/09 05:34:24;;;;;;;;;33.00;26.00;;;;;;;;5052570;28;8912;-74
2021/01/09 05:36:50;;;;;;;;;32.67;25.67;;;;;;;;5052135;28;8818;-75
2021/01/09 05:39:15;;;;;;;;;29.00;23.33;;;;;;;;5052150;28;8863;-74
2021/01/09 05:41:42;;;;;;;;;27.00;26.00;;;;;;;;5052128;28;8838;-75
2021/01/09 05:44:09;;;;;;;;;29.33;28.00;;;;;;;;5051986;28;9533;-74
2021/01/09 05:46:36;;;;;;;;;26.00;22.67;;;;;;;;5049532;28;8892;-74
2021/01/09 05:49:03;;;;;;;;;24.67;18.33;;;;;;;;5051704;28;8871;-74
2021/01/09 05:51:29;;;;;;;;;23.33;23.33;;;;;;;;5051195;28;8988;-75
2021/01/09 05:53:55;;;;;;;;;27.33;26.33;;;;;;;;5051859;28;8849;-75
2021/01/09 05:56:21;;;;;;;;;27.00;25.67;;;;;;;;5051411;28;8846;-76
2021/01/09 05:58:48;;;;;;;;;32.25;27.25;;;;;;;;5051479;28;8841;-73
2021/01/09 06:01:14;;;;;;;;;27.00;25.50;;;;;;;;5051407;28;9603;-73
2021/01/09 06:03:41;;;;;;;;;28.50;26.25;;;;;;;;5051197;28;8825;-72
2021/01/09 06:06:20;;;;;;;;;30.00;25.75;;;;;;;;5051472;28;8973;-72
2021/01/09 06:08:49;;;;;;;;;30.50;27.00;;;;;;;;5050574;28;8842;-73
2021/01/09 06:11:17;;;;;;;;;26.25;22.50;;;;;;;;5051041;28;8849;-73
2021/01/09 06:13:44;;;;;;;;;33.00;24.25;;;;;;;;5050981;28;8846;-72
2021/01/09 06:16:10;;;;;;;;;30.50;24.75;;;;;;;;5051456;28;8960;-72
2021/01/09 06:18:37;;;;;;;;;27.75;24.50;;;;;;;;5050966;28;9694;-73
2021/01/09 06:21:04;;;;;;;;;30.00;24.33;;;;;;;;5050941;28;8976;-73
2021/01/09 06:23:31;;;;;;;;;22.33;22.33;;;;;;;;5050996;28;8992;-72
2021/01/09 06:25:57;;;;;;;;;23.33;23.33;;;;;;;;5051009;28;8963;-74
2021/01/09 06:28:25;;;;;;;;;17.33;14.67;;;;;;;;5050923;28;8947;-75
2021/01/09 06:30:54;;;;;;;;;20.33;18.00;;;;;;;;5049250;28;8825;-74
2021/01/09 06:33:23;;;;;;;;;22.00;20.00;;;;;;;;5050606;28;9668;-73
2021/01/09 06:35:53;;;;;;;;;25.00;20.67;;;;;;;;5050958;28;8940;-73
2021/01/09 06:38:19;;;;;;;;;23.67;20.00;;;;;;;;5050645;28;8861;-72
2021/01/09 06:40:46;;;;;;;;;20.00;19.00;;;;;;;;5050352;28;8828;-73
2021/01/09 06:43:13;;;;;;;;;18.00;15.67;;;;;;;;5050632;28;8846;-72
2021/01/09 06:45:41;;;;;;;;;25.67;22.33;;;;;;;;5048976;28;8850;-74
2021/01/09 06:48:07;;;;;;;;;20.67;19.33;;;;;;;;5050752;28;8964;-73
2021/01/09 06:50:34;;;;;;;;;22.33;18.33;;;;;;;;5050219;28;8860;-73
2021/01/09 06:53:00;;;;;;;;;17.67;17.67;;;;;;;;5050555;28;8964;-73
2021/01/09 06:55:59;;;;;;;;;26.00;23.67;;;;;;;;5050336;28;8951;-74
2021/01/09 06:58:27;;;;;;;;;24.33;19.00;;;;;;;;5008409;28;8937;-73
2021/01/09 07:00:53;;;;;;;;;23.33;20.67;;;;;;;;5008468;28;8979;-73
2021/01/09 07:03:20;;;;;;;;;13.67;10.67;;;;;;;;5027621;28;8948;-71
2021/01/09 07:05:47;;;;;;;;;23.33;18.00;;;;;;;;5050695;28;8833;-73
2021/01/09 07:08:19;;;;;;;;;20.67;19.67;;;;;;;;5050768;28;8948;-73
2021/01/09 07:10:46;;;;;;;;;22.33;19.00;;;;;;;;5050338;28;8956;-74
2021/01/09 07:13:14;;;;;;;;;20.00;18.67;;;;;;;;5050968;28;8976;-73
2021/01/09 07:15:41;;;;;;;;;17.67;15.67;;;;;;;;5050363;28;9680;-72
2021/01/09 07:18:07;;;;;;;;;22.00;20.00;;;;;;;;5049950;28;8858;-72
2021/01/09 07:20:34;;;;;;;;;23.00;15.33;;;;;;;;5049970;28;9031;-73
2021/01/09 07:23:01;;;;;;;;;18.67;16.67;;;;;;;;5049123;28;8838;-72
2021/01/09 07:25:32;;;;;;;;;16.00;13.00;;;;;;;;5049775;28;8976;-73
2021/01/09 07:27:59;;;;;;;;;18.67;18.33;;;;;;;;5049885;28;8865;-73
2021/01/09 07:30:26;;;;;;;;;16.67;13.67;;;;;;;;5049698;28;8896;-73
2021/01/09 07:32:53;;;;;;;;;16.00;15.00;;;;;;;;5050329;28;8981;-72
2021/01/09 07:35:23;;;;;;;;;16.33;15.00;;;;;;;;5050192;28;8838;-75
2021/01/09 07:37:50;;;;;;;;;18.33;15.33;;;;;;;;5047389;28;8991;-73
2021/01/09 07:40:19;;;;;;;;;17.67;16.67;;;;;;;;5050001;28;8918;-73
2021/01/09 07:42:46;;;;;;;;;16.33;13.67;;;;;;;;5049620;28;8826;-72
2021/01/09 07:45:15;;;;;;;;;17.00;15.00;;;;;;;;5050020;28;8844;-73
2021/01/09 07:47:41;;;;;;;;;20.00;17.00;;;;;;;;5049657;28;8954;-72
2021/01/09 07:50:09;;;;;;;;;19.33;16.00;;;;;;;;5049723;28;8964;-73
2021/01/09 07:52:35;;;;;;;;;17.00;16.00;;;;;;;;5049442;28;8968;-73
2021/01/09 07:55:02;;;;;;;;;12.00;9.00;;;;;;;;5049786;28;9074;-73
2021/01/09 07:57:29;;;;;;;;;16.00;15.67;;;;;;;;5048996;28;8846;-73
2021/01/09 08:00:03;;;;;;;;;22.33;15.33;;;;;;;;5049645;28;8854;-72
2021/01/09 08:02:29;;;;;;;;;13.00;13.00;;;;;;;;5046738;28;8923;-73
2021/01/09 08:05:09;;;;;;;;;20.00;16.33;;;;;;;;5049331;28;8941;-73
2021/01/09 08:07:38;;;;;;;;;13.33;10.00;;;;;;;;5047333;28;8960;-73
2021/01/09 08:10:21;;;;;;;;;20.33;16.67;;;;;;;;5049247;28;8962;-72
2021/01/09 08:12:51;;;;;;;;;23.33;17.00;;;;;;;;5049453;28;8864;-72
2021/01/09 08:15:17;;;;;;;;;21.00;17.00;;;;;;;;5049407;28;8977;-74
2021/01/09 08:17:43;;;;;;;;;17.67;12.33;;;;;;;;5049116;28;8825;-74
2021/01/09 08:20:11;;;;;;;;;17.00;11.33;;;;;;;;5049365;28;9572;-71
2021/01/09 08:22:37;;;;;;;;;15.33;14.00;;;;;;;;5049854;28;8895;-72
2021/01/09 08:25:07;;;;;;;;;9.33;9.33;;;;;;;;5049598;28;9110;-71
2021/01/09 08:27:33;;;;;;;;;12.67;10.00;;;;;;;;5049378;28;8841;-70
2021/01/09 08:29:59;;;;;;;;;10.67;10.67;;;;;;;;5049265;28;8830;-71
2021/01/09 08:32:26;;;;;;;;;13.00;12.33;;;;;;;;5049210;28;9007;-70
2021/01/09 08:34:54;;;;;;;;;13.33;12.00;;;;;;;;5051065;28;8853;-72
2021/01/09 08:37:21;;;;;;;;;12.67;12.67;;;;;;;;5041388;28;8948;-70
2021/01/09 08:39:47;;;;;;;;;17.67;12.00;;;;;;;;5052330;28;8842;-73
2021/01/09 08:42:17;;;;;;;;;16.00;12.33;;;;;;;;5051699;28;8857;-70
2021/01/09 08:44:47;;;;;;;;;14.00;13.00;;;;;;;;5048658;28;8923;-70
2021/01/09 08:47:14;;;;;;;;;17.00;10.67;;;;;;;;5051217;28;8838;-70
2021/01/09 08:49:42;;;;;;;;;10.00;8.33;;;;;;;;5047414;28;8888;-73
2021/01/09 08:52:10;;;;;;;;;14.00;12.67;;;;;;;;5051458;28;8972;-73
2021/01/09 08:54:37;;;;;;;;;16.00;9.33;;;;;;;;5051066;28;8984;-70
2021/01/09 08:57:04;;;;;;;;;10.33;9.00;;;;;;;;5051402;28;8853;-73
2021/01/09 08:59:30;;;;;;;;;14.67;13.00;;;;;;;;5048695;28;8857;-71
2021/01/09 09:01:57;;;;;;;;;10.67;10.67;;;;;;;;5051226;28;9042;-69
2021/01/09 09:04:23;;;;;;;;;9.00;9.00;;;;;;;;5051408;28;8834;-73
2021/01/09 09:06:59;;;;;;;;;12.00;12.00;;;;;;;;5050588;28;8948;-71
2021/01/09 09:09:28;;;;;;;;;9.33;5.00;;;;;;;;5048099;28;8845;-69
2021/01/09 09:11:55;;;;;;;;;11.67;11.67;;;;;;;;5050211;28;8958;-75
2021/01/09 09:14:21;;;;;;;;;13.00;13.00;;;;;;;;5050586;28;9051;-75
2021/01/09 09:16:56;;;;;;;;;16.67;9.33;;;;;;;;5050970;28;8860;-74
2021/01/09 09:19:22;;;;;;;;;8.67;8.00;;;;;;;;5047763;28;8965;-78
2021/01/09 09:21:49;;;;;;;;;15.00;9.67;;;;;;;;5047249;28;8826;-78
2021/01/09 09:24:16;;;;;;;;;14.00;11.67;;;;;;;;5051780;28;8980;-70
2021/01/09 09:26:43;;;;;;;;;10.00;9.00;;;;;;;;5051196;28;8857;-71
2021/01/09 09:29:10;;;;;;;;;12.33;9.33;;;;;;;;5051398;28;8952;-70
2021/01/09 09:31:38;;;;;;;;;13.67;10.00;;;;;;;;5050700;28;8837;-71
2021/01/09 09:34:05;;;;;;;;;10.00;9.00;;;;;;;;5051288;28;8838;-74
2021/01/09 09:36:32;;;;;;;;;12.00;10.00;;;;;;;;5049219;28;8930;-72
2021/01/09 09:38:58;;;;;;;;;14.00;9.67;;;;;;;;5051307;28;8857;-71
2021/01/09 09:41:24;;;;;;;;;13.00;10.00;;;;;;;;5050229;28;8854;-68
2021/01/09 09:43:54;;;;;;;;;9.00;8.33;;;;;;;;5051491;28;8818;-70
2021/01/09 09:46:21;;;;;;;;;10.00;10.00;;;;;;;;5047961;28;8857;-69
2021/01/09 09:48:47;;;;;;;;;10.00;9.00;;;;;;;;5051228;28;8944;-70
2021/01/09 09:51:14;;;;;;;;;8.00;6.67;;;;;;;;5050610;28;8876;-70
2021/01/09 09:53:41;;;;;;;;;9.00;6.00;;;;;;;;5049449;28;8865;-72
2021/01/09 09:56:10;;;;;;;;;10.67;9.00;;;;;;;;5050791;28;8931;-70
2021/01/09 09:58:36;;;;;;;;;11.33;9.33;;;;;;;;5051130;28;8833;-71
2021/01/09 10:01:02;;;;;;;;;16.33;8.67;;;;;;;;5051007;28;8979;-73
2021/01/09 10:03:35;;;;;;;;;9.00;7.33;;;;;;;;5050530;28;9166;-70
2021/01/09 10:06:01;;;;;;;;;9.00;9.00;;;;;;;;5050746;28;8833;-71
2021/01/09 10:08:27;;;;;;;;;8.67;8.00;;;;;;;;5050541;28;8876;-71
2021/01/09 10:10:53;;;;;;;;;10.00;9.00;;;;;;;;5050877;28;8842;-74
2021/01/09 10:13:24;;;;;;;;;6.00;6.00;;;;;;;;5050644;28;8956;-73
2021/01/09 16:36:22;;;;;;;;;10.00;9.00;;;;;;;;5104679;27;931761;-69
2021/01/09 16:38:48;;;;;;;;;9.00;8.00;;;;;;;;5120693;28;8842;-69
2021/01/09 16:41:14;;;;;;;;;11.67;8.67;;;;;;;;5116378;27;8964;-68
2021/01/09 16:43:40;;;;;;;;;10.33;8.33;;;;;;;;5116080;27;8832;-68
2021/01/09 16:46:06;;;;;;;;;11.33;8.33;;;;;;;;5115230;27;8834;-68
2021/01/09 16:48:32;;;;;;;;;10.00;10.00;;;;;;;;5116245;27;8846;-72
2021/01/09 16:50:58;;;;;;;;;12.00;8.00;;;;;;;;5117193;27;8860;-68
2021/01/09 16:53:25;;;;;;;;;12.67;10.00;;;;;;;;5114202;28;8838;-68
2021/01/09 16:55:51;;;;;;;;;11.33;10.33;;;;;;;;5116801;27;9043;-71
2021/01/09 16:58:17;;;;;;;;;9.00;9.00;;;;;;;;5113609;27;8908;-71
2021/01/09 17:00:43;;;;;;;;;8.00;6.33;;;;;;;;5115292;27;8848;-72
2021/01/09 17:03:09;;;;;;;;;7.67;7.33;;;;;;;;5114122;27;8850;-71
2021/01/09 17:05:35;;;;;;;;;12.33;10.00;;;;;;;;5098840;28;9793;-70
2021/01/09 17:08:01;;;;;;;;;13.00;13.00;;;;;;;;5079968;28;8854;-72
2021/01/09 17:10:29;;;;;;;;;14.00;12.33;;;;;;;;5084256;28;9858;-72
2021/01/09 17:12:55;;;;;;;;;6.67;6.00;;;;;;;;5084387;28;8846;-72
2021/01/09 17:15:20;;;;;;;;;13.00;12.33;;;;;;;;5081167;28;8870;-74
2021/01/09 17:17:46;;;;;;;;;14.00;10.00;;;;;;;;5085137;28;8839;-75
2021/01/09 17:20:13;;;;;;;;;5.33;4.33;;;;;;;;5084343;28;8838;-72
2021/01/09 17:22:39;;;;;;;;;11.00;9.67;;;;;;;;5084293;28;8948;-71
2021/01/09 17:25:06;;;;;;;;;13.00;10.00;;;;;;;;5084527;28;8957;-70
2021/01/09 17:27:33;;;;;;;;;15.33;10.67;;;;;;;;5086254;28;8870;-70
2021/01/09 17:30:00;;;;;;;;;12.00;11.00;;;;;;;;5083910;28;8847;-71
2021/01/09 17:32:26;;;;;;;;;9.33;9.33;;;;;;;;5086420;28;8831;-72
2021/01/09 17:34:54;;;;;;;;;9.00;9.00;;;;;;;;5085609;28;8843;-72
2021/01/09 17:37:22;;;;;;;;;11.00;9.67;;;;;;;;5082065;28;8822;-74
2021/01/09 17:39:48;;;;;;;;;14.00;10.67;;;;;;;;5085988;28;9092;-73
2021/01/09 17:42:14;;;;;;;;;8.33;6.00;;;;;;;;5085970;28;8851;-73
2021/01/09 17:44:41;;;;;;;;;10.00;10.00;;;;;;;;5085633;28;9596;-74
2021/01/09 17:47:07;;;;;;;;;11.33;11.00;;;;;;;;5075121;28;8978;-73
2021/01/09 17:49:33;;;;;;;;;11.67;11.00;;;;;;;;5071900;28;8874;-73
2021/01/09 17:51:59;;;;;;;;;9.00;6.33;;;;;;;;5070910;28;8938;-71
2021/01/09 17:54:25;;;;;;;;;12.33;9.67;;;;;;;;5067697;28;8855;-73
2021/01/09 17:56:51;;;;;;;;;9.00;9.00;;;;;;;;5069724;28;8844;-71
2021/01/09 17:59:17;;;;;;;;;14.00;10.67;;;;;;;;5070178;28;8815;-71
2021/01/09 18:01:45;;;;;;;;;10.67;10.00;;;;;;;;5069615;28;8973;-71
2021/01/09 18:04:11;;;;;;;;;9.67;9.00;;;;;;;;5069827;28;10044;-71
2021/01/09 18:06:38;;;;;;;;;11.00;10.00;;;;;;;;5068901;28;8971;-71
2021/01/09 18:09:04;;;;;;;;;13.33;10.00;;;;;;;;5069010;28;8969;-71
2021/01/09 18:11:30;;;;;;;;;11.33;9.33;;;;;;;;5068537;28;8936;-71
2021/01/09 18:13:56;;;;;;;;;14.00;11.33;;;;;;;;5067372;28;8859;-71
2021/01/09 18:16:23;;;;;;;;;11.00;11.00;;;;;;;;5069054;28;8907;-72
2021/01/09 18:18:49;;;;;;;;;9.33;7.67;;;;;;;;5069621;28;9563;-71
2021/01/09 18:21:19;;;;;;;;;12.33;10.67;;;;;;;;5069442;28;8961;-70
2021/01/09 18:23:45;;;;;;;;;14.33;10.33;;;;;;;;5069688;28;8851;-71
2021/01/09 18:26:18;;;;;;;;;15.00;14.33;;;;;;;;5068847;28;8946;-70
2021/01/09 18:28:44;;;;;;;;;18.33;17.33;;;;;;;;5070156;28;8904;-71
2021/01/09 18:31:12;;;;;;;;;14.67;13.00;;;;;;;;5066863;28;8858;-71
2021/01/09 18:33:37;;;;;;;;;14.00;14.00;;;;;;;;5067831;28;8874;-70
2021/01/09 18:36:05;;;;;;;;;11.00;10.00;;;;;;;;5066539;28;8831;-69
2021/01/09 18:38:30;;;;;;;;;17.33;13.33;;;;;;;;5070352;28;8826;-71
2021/01/09 18:40:56;;;;;;;;;23.33;22.67;;;;;;;;5070179;28;8977;-69
2021/01/09 18:43:22;;;;;;;;;14.67;14.67;;;;;;;;5070903;28;8855;-71
2021/01/09 18:45:48;;;;;;;;;14.00;13.67;;;;;;;;5070779;28;8942;-68
2021/01/09 18:48:14;;;;;;;;;10.33;9.00;;;;;;;;5068957;28;8857;-68
2021/01/09 18:50:40;;;;;;;;;15.33;12.33;;;;;;;;5070759;28;8969;-69
2021/01/09 18:53:07;;;;;;;;;14.00;12.33;;;;;;;;5069961;28;8835;-68
2021/01/09 18:55:33;;;;;;;;;10.00;9.00;;;;;;;;5069834;28;8833;-68
2021/01/09 18:57:59;;;;;;;;;12.33;10.00;;;;;;;;5068524;28;8860;-69
2021/01/09 19:00:25;;;;;;;;;21.33;18.00;;;;;;;;5069738;28;8977;-69
2021/01/09 19:02:51;;;;;;;;;15.00;15.00;;;;;;;;5068913;28;8840;-70
2021/01/09 19:05:16;;;;;;;;;13.00;10.00;;;;;;;;5069563;28;9510;-68
2021/01/09 19:07:47;;;;;;;;;11.00;10.33;;;;;;;;5069465;28;9623;-69
2021/01/09 19:10:14;;;;;;;;;10.00;10.00;;;;;;;;5069355;28;8995;-69
2021/01/09 19:12:40;;;;;;;;;11.00;9.33;;;;;;;;5069077;28;8832;-68
2021/01/09 19:15:07;;;;;;;;;14.00;13.00;;;;;;;;5069168;28;8936;-70
2021/01/09 19:17:33;;;;;;;;;12.33;10.00;;;;;;;;5068627;28;8847;-73
2021/01/09 19:19:59;;;;;;;;;10.33;10.00;;;;;;;;5068394;28;9019;-69
2021/01/09 19:22:25;;;;;;;;;9.00;8.33;;;;;;;;5068523;28;8839;-70
2021/01/09 19:24:51;;;;;;;;;10.67;10.67;;;;;;;;5068943;28;8855;-71
2021/01/09 19:27:18;;;;;;;;;10.00;9.00;;;;;;;;5069203;28;8819;-76
2021/01/09 19:29:43;;;;;;;;;14.67;13.67;;;;;;;;5068747;28;8925;-70
2021/01/09 19:32:09;;;;;;;;;14.00;9.00;;;;;;;;5063332;28;8988;-68
2021/01/09 19:34:35;;;;;;;;;13.00;9.67;;;;;;;;5065338;28;9594;-69
2021/01/09 19:37:01;;;;;;;;;15.00;11.00;;;;;;;;5065649;28;8863;-68
2021/01/09 19:39:27;;;;;;;;;9.33;7.00;;;;;;;;5067670;28;8843;-68
2021/01/09 19:41:55;;;;;;;;;11.00;11.00;;;;;;;;5067243;28;8860;-70
2021/01/09 19:44:22;;;;;;;;;6.67;6.00;;;;;;;;5065914;28;8850;-67
2021/01/09 19:46:48;;;;;;;;;14.00;10.33;;;;;;;;5065580;28;9557;-68
2021/01/09 19:49:14;;;;;;;;;11.67;10.00;;;;;;;;5066333;28;8856;-67
2021/01/09 19:51:41;;;;;;;;;8.33;8.33;;;;;;;;5067369;28;8856;-67
2021/01/09 19:54:07;;;;;;;;;10.00;10.00;;;;;;;;5066079;28;8836;-69
2021/01/09 19:56:33;;;;;;;;;9.67;8.33;;;;;;;;5067462;28;8850;-68
2021/01/09 19:58:59;;;;;;;;;15.00;9.00;;;;;;;;5067220;28;8973;-70
2021/01/09 20:01:26;;;;;;;;;10.67;9.00;;;;;;;;5068329;28;8863;-69
2021/01/09 20:03:52;;;;;;;;;10.67;10.67;;;;;;;;5063609;28;8947;-68
2021/01/09 20:06:18;;;;;;;;;11.00;8.33;;;;;;;;5067209;28;8820;-69
2021/01/09 20:08:44;;;;;;;;;13.00;10.00;;;;;;;;5068485;28;8861;-73
2021/01/09 20:11:11;;;;;;;;;9.33;6.67;;;;;;;;5067735;28;9682;-69
2021/01/09 20:13:37;;;;;;;;;12.33;10.33;;;;;;;;5067963;28;8855;-68
2021/01/09 20:16:03;;;;;;;;;10.00;9.00;;;;;;;;5067434;28;9023;-75
2021/01/09 20:18:31;;;;;;;;;9.00;9.00;;;;;;;;5068362;28;9734;-72
2021/01/09 20:20:57;;;;;;;;;10.00;10.00;;;;;;;;5068015;28;8931;-71
2021/01/09 20:23:23;;;;;;;;;13.33;11.67;;;;;;;;5068393;28;8846;-74
2021/01/09 20:25:49;;;;;;;;;15.00;14.00;;;;;;;;5068542;28;8834;-75
2021/01/09 20:28:15;;;;;;;;;14.00;13.00;;;;;;;;5067809;28;8870;-73
2021/01/09 20:30:41;;;;;;;;;14.33;10.33;;;;;;;;5067282;28;8850;-72
2021/01/09 20:33:07;;;;;;;;;13.00;13.00;;;;;;;;5064428;28;8850;-72
2021/01/09 20:35:34;;;;;;;;;14.33;13.33;;;;;;;;5063869;28;8866;-74
2021/01/09 20:38:00;;;;;;;;;14.00;11.00;;;;;;;;5066833;28;8847;-69
2021/01/09 20:40:26;;;;;;;;;11.00;9.67;;;;;;;;5067849;28;8870;-67
2021/01/09 20:42:53;;;;;;;;;9.00;9.00;;;;;;;;5064260;28;8952;-72
2021/01/09 20:45:19;;;;;;;;;15.00;13.00;;;;;;;;5064559;28;8823;-68
2021/01/09 20:47:46;;;;;;;;;12.33;12.33;;;;;;;;5067920;28;8998;-68
2021/01/09 20:50:13;;;;;;;;;13.00;13.00;;;;;;;;5067213;28;9752;-68
2021/01/09 20:52:42;;;;;;;;;11.00;11.00;;;;;;;;5067287;28;8829;-69
2021/01/09 20:55:08;;;;;;;;;13.00;11.67;;;;;;;;5066954;28;8927;-70